sensor_id;sensor_type;location;lat;lon;timestamp;pressure;altitude;pressure_sealevel;temperature;humidity
15489;BME280;7846;48.830;9.116;2023-04-04T01:58:44;98610.47;;;3.03;54.24
15489;BME280;7846;48.830;9.116;2023-04-04T02:02:05;98602.59;;;3.62;53.91
15489;BME280;7846;48.830;9.116;2023-04-04T02:05:52;98590.72;;;3.58;53.65
15489;BME280;7846;48.830;9.116;2023-04-04T02:12:57;98604.94;;;3.52;53.77
15489;BME280;7846;48.830;9.116;2023-04-04T02:32:14;98614.13;;;3.29;55.16
15489;BME280;7846;48.830;9.116;2023-04-04T02:35:43;98621.25;;;3.11;54.74
15489;BME280;7846;48.830;9.116;2023-04-04T02:38:58;98624.84;;;2.95;55.35
15489;BME280;7846;48.830;9.116;2023-04-04T02:41:57;98618.22;;;3.19;54.94
15489;BME280;7846;48.830;9.116;2023-04-04T02:44:51;98595.84;;;2.72;55.46
15489;BME280;7846;48.830;9.116;2023-04-04T02:47:49;98594.88;;;3.03;55.81
15489;BME280;7846;48.830;9.116;2023-04-04T02:50:55;98610.78;;;3.13;55.63
15489;BME280;7846;48.830;9.116;2023-04-04T02:53:57;98603.56;;;2.88;54.83
15489;BME280;7846;48.830;9.116;2023-04-04T02:56:48;98605.41;;;2.56;56.52
15489;BME280;7846;48.830;9.116;2023-04-04T02:59:59;98610.06;;;2.81;56.46
15489;BME280;7846;48.830;9.116;2023-04-04T03:03:24;98588.19;;;3.13;55.78
15489;BME280;7846;48.830;9.116;2023-04-04T03:06:39;98609.00;;;3.13;55.77
15489;BME280;7846;48.830;9.116;2023-04-04T03:09:45;98588.38;;;3.10;55.26
15489;BME280;7846;48.830;9.116;2023-04-04T03:12:35;98606.69;;;3.09;55.81
15489;BME280;7846;48.830;9.116;2023-04-04T03:15:25;98602.94;;;2.99;55.74
15489;BME280;7846;48.830;9.116;2023-04-04T03:18:13;98599.38;;;2.85;55.76
15489;BME280;7846;48.830;9.116;2023-04-04T03:20:59;98601.91;;;2.87;56.50
15489;BME280;7846;48.830;9.116;2023-04-04T03:23:53;98608.94;;;2.85;56.20
15489;BME280;7846;48.830;9.116;2023-04-04T03:39:04;98592.75;;;2.65;56.36
15489;BME280;7846;48.830;9.116;2023-04-04T03:42:31;98600.50;;;2.51;56.48
15489;BME280;7846;48.830;9.116;2023-04-04T15:06:47;98409.34;;;15.45;28.02
15489;BME280;7846;48.830;9.116;2023-04-04T15:10:07;98427.22;;;16.14;27.95
15489;BME280;7846;48.830;9.116;2023-04-04T15:30:20;98427.69;;;14.27;29.12
15489;BME280;7846;48.830;9.116;2023-04-04T15:33:15;98409.94;;;14.85;29.64
15489;BME280;7846;48.830;9.116;2023-04-04T15:36:05;98410.81;;;16.86;27.93
15489;BME280;7846;48.830;9.116;2023-04-04T15:38:52;98409.13;;;18.45;26.88
15489;BME280;7846;48.830;9.116;2023-04-04T15:41:40;98410.63;;;18.54;26.89
15489;BME280;7846;48.830;9.116;2023-04-04T15:44:36;98414.53;;;18.51;27.16
15489;BME280;7846;48.830;9.116;2023-04-04T15:52:04;98406.09;;;16.20;28.64
15489;BME280;7846;48.830;9.116;2023-04-04T15:55:13;98392.28;;;16.25;29.20
15489;BME280;7846;48.830;9.116;2023-04-04T15:58:15;98410.06;;;15.00;27.96
15489;BME280;7846;48.830;9.116;2023-04-04T16:01:01;98404.97;;;17.93;27.74
15489;BME280;7846;48.830;9.116;2023-04-04T16:04:00;98391.50;;;16.16;28.06
15489;BME280;7846;48.830;9.116;2023-04-04T16:06:44;98392.22;;;16.10;28.00
15489;BME280;7846;48.830;9.116;2023-04-04T16:09:29;98386.97;;;15.48;28.68
15489;BME280;7846;48.830;9.116;2023-04-04T16:12:21;98390.78;;;15.14;29.70
15489;BME280;7846;48.830;9.116;2023-04-04T16:15:08;98394.34;;;16.67;28.73
15489;BME280;7846;48.830;9.116;2023-04-04T16:17:57;98390.31;;;17.46;27.70
15489;BME280;7846;48.830;9.116;2023-04-04T16:20:44;98384.66;;;17.19;27.73
15489;BME280;7846;48.830;9.116;2023-04-04T16:23:32;98394.44;;;14.33;29.44
15489;BME280;7846;48.830;9.116;2023-04-04T16:26:19;98392.53;;;15.30;29.89
15489;BME280;7846;48.830;9.116;2023-04-04T16:29:06;98384.81;;;16.58;29.01
15489;BME280;7846;48.830;9.116;2023-04-04T16:31:51;98375.13;;;17.61;27.52
15489;BME280;7846;48.830;9.116;2023-04-04T16:34:39;98396.53;;;15.65;28.21
15489;BME280;7846;48.830;9.116;2023-04-04T16:37:31;98400.34;;;13.70;29.90
15489;BME280;7846;48.830;9.116;2023-04-04T16:40:22;98369.94;;;13.90;30.44
15489;BME280;7846;48.830;9.116;2023-04-04T16:43:13;98370.03;;;15.49;30.50
15489;BME280;7846;48.830;9.116;2023-04-04T16:50:12;98361.50;;;15.93;28.63
15489;BME280;7846;48.830;9.116;2023-04-04T16:56:35;98379.78;;;14.94;30.04
15489;BME280;7846;48.830;9.116;2023-04-04T16:59:26;98365.28;;;14.41;29.99
15489;BME280;7846;48.830;9.116;2023-04-04T17:02:17;98371.75;;;13.90;32.17
15489;BME280;7846;48.830;9.116;2023-04-04T17:05:01;98376.78;;;12.31;33.03
15489;BME280;7846;48.830;9.116;2023-04-04T17:07:50;98379.38;;;12.83;33.52
15489;BME280;7846;48.830;9.116;2023-04-04T17:10:37;98377.31;;;11.81;33.97
15489;BME280;7846;48.830;9.116;2023-04-04T17:16:42;98385.53;;;11.78;34.80
15489;BME280;7846;48.830;9.116;2023-04-04T17:19:48;98368.88;;;11.14;35.06
15489;BME280;7846;48.830;9.116;2023-04-04T17:22:41;98363.28;;;10.72;35.74
15489;BME280;7846;48.830;9.116;2023-04-04T17:25:30;98376.16;;;10.09;37.13
15489;BME280;7846;48.830;9.116;2023-04-04T17:28:24;98386.16;;;10.62;36.65
15489;BME280;7846;48.830;9.116;2023-04-04T17:31:08;98368.00;;;10.96;35.82
15489;BME280;7846;48.830;9.116;2023-04-04T17:33:56;98378.06;;;11.56;35.03
15489;BME280;7846;48.830;9.116;2023-04-04T17:36:51;98363.47;;;11.97;34.88
15489;BME280;7846;48.830;9.116;2023-04-04T17:39:41;98384.09;;;11.66;35.63
15489;BME280;7846;48.830;9.116;2023-04-04T17:42:55;98373.91;;;11.08;36.31
15489;BME280;7846;48.830;9.116;2023-04-04T17:45:46;98379.19;;;10.80;35.96
15489;BME280;7846;48.830;9.116;2023-04-04T17:48:38;98373.28;;;10.59;37.66
15489;BME280;7846;48.830;9.116;2023-04-04T17:51:30;98379.16;;;10.43;37.34
15489;BME280;7846;48.830;9.116;2023-04-04T17:54:15;98385.97;;;10.07;37.65
15489;BME280;7846;48.830;9.116;2023-04-04T17:57:12;98383.75;;;10.31;38.53
15489;BME280;7846;48.830;9.116;2023-04-04T18:00:10;98374.16;;;10.50;37.69
15489;BME280;7846;48.830;9.116;2023-04-04T18:03:01;98374.06;;;10.03;38.37
15489;BME280;7846;48.830;9.116;2023-04-04T18:05:48;98380.44;;;10.00;38.82
15489;BME280;7846;48.830;9.116;2023-04-04T20:49:46;98446.06;;;6.99;45.74
15489;BME280;7846;48.830;9.116;2023-04-04T23:21:28;98438.63;;;5.17;53.04
15489;BME280;7846;48.830;9.116;2023-04-04T23:28:06;98438.06;;;4.88;54.52
15489;BME280;7846;48.830;9.116;2023-04-04T23:30:50;98440.97;;;4.96;54.21
15489;BME280;7846;48.830;9.116;2023-04-04T23:33:36;98426.16;;;4.83;53.79
15489;BME280;7846;48.830;9.116;2023-04-04T23:36:20;98421.88;;;4.95;53.79
15489;BME280;7846;48.830;9.116;2023-04-04T23:39:06;98400.38;;;4.92;54.12
15489;BME280;7846;48.830;9.116;2023-04-04T23:41:50;98423.16;;;4.90;54.31
15489;BME280;7846;48.830;9.116;2023-04-04T23:44:34;98404.19;;;4.75;54.20
15489;BME280;7846;48.830;9.116;2023-04-04T23:47:19;98397.81;;;4.79;53.87
15489;BME280;7846;48.830;9.116;2023-04-04T23:50:04;98422.31;;;4.76;54.84
15489;BME280;7846;48.830;9.116;2023-04-04T23:52:49;98410.63;;;4.82;54.68
15489;BME280;7846;48.830;9.116;2023-04-04T23:55:33;98395.22;;;4.79;54.89
15489;BME280;7846;48.830;9.116;2023-04-04T23:58:17;98407.09;;;4.83;55.38
